Terminal Aerodrome Forecast
Issued by NWS

Home | Current Version | Previous Version | Text Only | Print | Product List | Glossary On
Versions: 1 2 3 4 5 6 7 8 9 10 11 12 13 14
000
FTUS42 TJSJ 210500
TAFJPS
TAF
TJPS 210524Z 2106/2206 00000KT P6SM FEW030
     FM211400 15012KT P6SM FEW030
     FM212330 05004KT P6SM FEW025=

USA.gov is the U.S. government's official web portal to all federal, state and local government web resources and services.